»·PEaware :: N9401L MDPP-KMIA

N9401L :: MDPP-KMIA

FLIGHT INFORMATION

Flight Status: Arrived
Operator: Privately registered:
United States
More flights under this callsign
Pilot: Juan D. (11620)
Aircraft: ECLIPSE 500
(EA50)
More flights by this aircraft type
Origin: MDPP Gregorio Luperon Intl
Dominican Republic
Destination: KMIA Miami Intl
United States
More flights between these airports :: More routes between these airports
Route:
File this flight plan on PilotEdge
Remarks:
Altitude:
(Current/Filed)
40,000ft
Speed:
(Current/Filed)
300kts
Departed: 21-Jan-19 06:44 AM
Arrived: 21-Jan-19 08:59 AM
Distance/Time
Traveled:
648nm/2:14
Distance/Time
To Go:
Arrived

Flight Plot

Page will automatically refresh every two minutes.

Flight plan parsing failed; only flown route is shown


Map Options




Map Legend


Flown Route
Filed Route
Departure Airport
Arrival Airport
Navaid (VOR, NDB)
Fix

Horizontal Profiles

Position Reports

Time Latitude Longitude Heading Altitude Ground
Speed
21-Jan-19 06:42 19.761895 -70.556192 252 18ft 0kts
21-Jan-19 06:43 19.754663 -70.581234 252 777ft 147kts
21-Jan-19 06:44 19.740644 -70.630283 253 3118ft 191kts
21-Jan-19 06:45 19.746353 -70.686836 282 5945ft 206kts
21-Jan-19 06:46 19.766836 -70.744631 293 9047ft 213kts
21-Jan-19 06:47 19.790397 -70.801015 295 12046ft 207kts
21-Jan-19 06:48 19.814495 -70.854664 298 14792ft 197kts
21-Jan-19 06:49 19.839869 -70.903790 301 17262ft 186kts
21-Jan-19 06:50 19.864737 -70.949658 303 19471ft 174kts
21-Jan-19 06:51 19.890947 -70.990766 308 21415ft 165kts
21-Jan-19 06:52 19.918438 -71.028251 308 23121ft 157kts
21-Jan-19 06:53 19.945643 -71.063455 308 24612ft 153kts
21-Jan-19 06:54 19.973164 -71.097175 308 25937ft 150kts
21-Jan-19 06:55 20.001125 -71.129670 308 27118ft 149kts
21-Jan-19 06:56 20.029734 -71.161276 308 28189ft 149kts
21-Jan-19 06:57 20.057134 -71.193772 301 29168ft 147kts
21-Jan-19 06:58 20.083245 -71.229328 301 29714ft 171kts
21-Jan-19 06:59 20.115030 -71.278127 298 29711ft 228kts
21-Jan-19 07:00 20.152462 -71.341332 298 29708ft 275kts
21-Jan-19 07:01 20.196404 -71.414683 299 29706ft 309kts
21-Jan-19 07:02 20.244536 -71.495016 299 29704ft 333kts
21-Jan-19 07:03 20.295432 -71.580416 299 29703ft 349kts
21-Jan-19 07:04 20.349700 -71.668341 300 29709ft 359kts
21-Jan-19 07:05 20.404810 -71.757424 300 29709ft 360kts
21-Jan-19 07:06 20.459907 -71.846318 300 29708ft 360kts
21-Jan-19 07:07 20.515266 -71.935483 300 29734ft 360kts
21-Jan-19 07:08 20.570549 -72.024298 300 29734ft 360kts
21-Jan-19 07:09 20.626025 -72.113295 300 29733ft 360kts
21-Jan-19 07:10 20.681362 -72.201572 300 30138ft 355kts
21-Jan-19 07:11 20.737011 -72.289876 300 30123ft 363kts
21-Jan-19 07:12 20.793396 -72.379386 301 30103ft 363kts
21-Jan-19 07:13 20.850057 -72.469245 301 30097ft 364kts
21-Jan-19 07:14 20.906622 -72.558966 301 30096ft 364kts
21-Jan-19 07:15 20.963201 -72.648471 301 30095ft 364kts
21-Jan-19 07:16 21.020388 -72.737471 300 30104ft 361kts
21-Jan-19 07:17 21.077722 -72.823610 301 30105ft 353kts
21-Jan-19 07:18 21.135366 -72.907389 301 30101ft 357kts
21-Jan-19 07:19 21.193956 -72.991351 301 30100ft 357kts
21-Jan-19 07:20 21.253819 -73.076261 301 30099ft 357kts
21-Jan-19 07:21 21.314155 -73.160758 301 30098ft 358kts
21-Jan-19 07:22 21.375333 -73.245295 301 30097ft 358kts
21-Jan-19 07:24 21.436492 -73.329554 301 30096ft 358kts
21-Jan-19 07:25 21.497671 -73.413827 301 30095ft 358kts
21-Jan-19 07:26 21.559141 -73.498318 301 30094ft 358kts
21-Jan-19 07:27 21.620383 -73.582452 301 30094ft 358kts
21-Jan-19 07:28 21.681975 -73.667028 301 30104ft 358kts
21-Jan-19 07:29 21.743305 -73.751171 301 30105ft 358kts
21-Jan-19 07:30 21.804762 -73.835481 301 30104ft 358kts
21-Jan-19 07:31 21.866174 -73.919600 301 30103ft 358kts
21-Jan-19 07:32 21.927661 -74.003796 301 30102ft 358kts
21-Jan-19 07:33 21.989499 -74.088381 301 30101ft 358kts
21-Jan-19 07:34 22.051270 -74.172790 301 30101ft 357kts
21-Jan-19 07:35 22.112939 -74.256921 301 30096ft 358kts
21-Jan-19 07:36 22.174995 -74.341441 301 30095ft 358kts
21-Jan-19 07:37 22.236789 -74.425629 301 30099ft 358kts
21-Jan-19 07:38 22.296963 -74.510606 301 30127ft 358kts
21-Jan-19 07:39 22.357307 -74.595833 301 30154ft 358kts
21-Jan-19 07:40 22.417478 -74.680719 300 30185ft 357kts
21-Jan-19 07:41 22.477913 -74.765924 300 30185ft 357kts
21-Jan-19 07:42 22.538154 -74.850751 300 30184ft 357kts
21-Jan-19 07:43 22.598629 -74.935682 300 30183ft 357kts
21-Jan-19 07:44 22.659621 -75.020448 300 30183ft 356kts
21-Jan-19 07:44 22.710402 -75.090155 301 30182ft 356kts
21-Jan-19 07:45 22.769540 -75.175831 299 30181ft 355kts
21-Jan-19 07:47 22.837779 -75.276041 299 30180ft 354kts
21-Jan-19 07:48 22.896252 -75.361727 299 30179ft 353kts
21-Jan-19 07:48 22.944872 -75.432000 299 30177ft 348kts
21-Jan-19 07:49 23.002821 -75.514395 299 30175ft 341kts
21-Jan-19 07:50 23.060200 -75.594461 299 30173ft 336kts
21-Jan-19 07:51 23.115605 -75.671408 299 30191ft 336kts
21-Jan-19 07:52 23.171752 -75.751914 296 30211ft 333kts
21-Jan-19 07:53 23.224440 -75.834728 296 30236ft 332kts
21-Jan-19 07:54 23.275246 -75.918353 292 30239ft 329kts
21-Jan-19 07:55 23.321195 -76.004692 292 30237ft 330kts
21-Jan-19 07:56 23.367061 -76.090738 292 30235ft 329kts
21-Jan-19 07:57 23.409972 -76.171018 292 30234ft 330kts
21-Jan-19 07:58 23.455622 -76.256058 292 30232ft 329kts
21-Jan-19 07:59 23.501679 -76.341938 292 30231ft 330kts
21-Jan-19 08:00 23.548036 -76.428214 292 30229ft 329kts
21-Jan-19 08:01 23.594426 -76.514246 292 30228ft 330kts
21-Jan-19 08:02 23.640845 -76.600379 293 30227ft 330kts
21-Jan-19 08:03 23.687105 -76.685984 292 30244ft 330kts
21-Jan-19 08:04 23.733597 -76.772337 292 30243ft 329kts
21-Jan-19 08:05 23.779857 -76.858189 292 30241ft 329kts
21-Jan-19 08:06 23.826463 -76.944477 292 30239ft 329kts
21-Jan-19 08:07 23.872669 -77.030800 293 30246ft 329kts
21-Jan-19 08:08 23.915573 -77.114893 293 30246ft 329kts
21-Jan-19 08:09 23.960522 -77.203188 293 29439ft 337kts
21-Jan-19 08:10 24.005276 -77.293041 293 28423ft 335kts
21-Jan-19 08:11 24.048709 -77.382397 293 27403ft 331kts
21-Jan-19 08:12 24.091270 -77.471060 293 26355ft 327kts
21-Jan-19 08:13 24.133015 -77.560024 293 25322ft 335kts
21-Jan-19 08:14 24.174644 -77.650629 293 24274ft 332kts
21-Jan-19 08:15 24.215360 -77.741032 293 23298ft 328kts
21-Jan-19 08:16 24.255099 -77.830662 293 22324ft 326kts
21-Jan-19 08:17 24.294157 -77.919995 293 21335ft 324kts
21-Jan-19 08:18 24.332465 -78.008807 293 20340ft 320kts
21-Jan-19 08:19 24.371683 -78.096464 295 20246ft 321kts
21-Jan-19 08:20 24.412937 -78.183497 295 20245ft 321kts
21-Jan-19 08:21 24.454055 -78.270272 295 20244ft 321kts
21-Jan-19 08:22 24.496789 -78.356361 298 20243ft 322kts
21-Jan-19 08:23 24.540636 -78.435913 298 20179ft 270kts
21-Jan-19 08:24 24.580950 -78.505188 301 19646ft 269kts
21-Jan-19 08:25 24.622137 -78.573595 301 19109ft 267kts
21-Jan-19 08:26 24.665346 -78.646279 301 18381ft 290kts
21-Jan-19 08:27 24.708299 -78.719576 300 17704ft 290kts
21-Jan-19 08:28 24.751639 -78.794205 300 17011ft 288kts
21-Jan-19 08:29 24.794694 -78.868919 300 16311ft 287kts
21-Jan-19 08:30 24.837231 -78.943203 300 15609ft 286kts
21-Jan-19 08:31 24.879344 -79.017334 301 15255ft 286kts
21-Jan-19 08:32 24.921288 -79.091883 301 15268ft 287kts
21-Jan-19 08:33 24.963243 -79.167026 301 15282ft 287kts
21-Jan-19 08:34 25.005029 -79.242114 301 15290ft 287kts
21-Jan-19 08:35 25.046922 -79.317184 301 15289ft 286kts
21-Jan-19 08:36 25.088732 -79.391781 301 15289ft 285kts
21-Jan-19 08:37 25.130641 -79.466219 301 15291ft 285kts
21-Jan-19 08:38 25.172563 -79.540380 301 15290ft 285kts
21-Jan-19 08:39 25.217924 -79.611925 305 15290ft 285kts
21-Jan-19 08:40 25.264541 -79.678530 309 14366ft 241kts
21-Jan-19 08:41 25.305554 -79.730525 309 13368ft 221kts
21-Jan-19 08:42 25.345615 -79.781208 309 12375ft 217kts
21-Jan-19 08:43 25.384848 -79.830993 309 11384ft 214kts
21-Jan-19 08:44 25.428999 -79.873427 332 10383ft 215kts
21-Jan-19 08:45 25.482126 -79.902548 331 9384ft 211kts
21-Jan-19 08:46 25.534140 -79.931796 331 8385ft 209kts
21-Jan-19 08:47 25.585333 -79.961232 331 7383ft 206kts
21-Jan-19 08:48 25.630233 -79.998921 312 6375ft 204kts
21-Jan-19 08:49 25.664256 -80.045565 296 5270ft 184kts
21-Jan-19 08:50 25.688328 -80.095050 302 3837ft 181kts
21-Jan-19 08:51 25.713079 -80.140236 303 2931ft 186kts
21-Jan-19 08:52 25.735941 -80.180363 303 2091ft 179kts
21-Jan-19 08:53 25.752112 -80.208942 302 1721ft 154kts
21-Jan-19 08:54 25.763381 -80.230468 300 1336ft 112kts
21-Jan-19 08:55 25.770563 -80.246765 298 831ft 101kts
21-Jan-19 08:56 25.778379 -80.261718 304 404ft 96kts
21-Jan-19 08:57 25.785998 -80.276391 303 97ft 91kts
21-Jan-19 08:58 25.792160 -80.288449 301 6ft 34kts
21-Jan-19 08:59 25.794041 -80.288875 354 6ft 23kts
21-Jan-19 09:00 25.796597 -80.285805 20 6ft 21kts
21-Jan-19 09:01 25.797027 -80.285476 29 6ft 0kts
21-Jan-19 09:02 25.797027 -80.285476 29 6ft 0kts

Navigation Log

Ident Type
Flight plan parsing failed, navigation log unavailable